createdAt,value
2022-09-10T00:01:52.709Z,97574.31
2022-09-10T00:05:56.284Z,97568.84
2022-09-10T00:09:59.796Z,97552.25
2022-09-10T00:14:05.520Z,97551.78
2022-09-10T00:18:11.374Z,97566.31
2022-09-10T00:22:14.487Z,97563.63
2022-09-10T00:26:22.379Z,97557.72
2022-09-10T00:30:27.320Z,97552.47
2022-09-10T00:34:33.353Z,97546.59
2022-09-10T00:38:36.865Z,97549.63
2022-09-10T00:42:42.393Z,97551.00
2022-09-10T00:46:50.836Z,97557.19
2022-09-10T00:50:56.817Z,97560.19
2022-09-10T00:55:01.203Z,97567.00
2022-09-10T00:59:06.562Z,97568.00
2022-09-10T01:03:12.377Z,97575.25
2022-09-10T01:07:17.786Z,97582.50
2022-09-10T01:11:38.351Z,97583.88
2022-09-10T01:15:50.631Z,97580.00
2022-09-10T01:20:42.223Z,97580.75
2022-09-10T01:24:56.199Z,97579.22
2022-09-10T01:29:06.490Z,97586.84
2022-09-10T01:33:17.074Z,97571.97
2022-09-10T01:37:25.695Z,97579.63
2022-09-10T01:41:29.755Z,97583.44
2022-09-10T01:45:43.547Z,97583.81
2022-09-10T01:50:04.468Z,97577.97
2022-09-10T01:54:24.997Z,97583.56
2022-09-10T01:58:35.340Z,97582.31
2022-09-10T02:06:48.460Z,97571.94
2022-09-10T02:10:54.894Z,97572.28
2022-09-10T02:14:59.159Z,97571.69
2022-09-10T02:19:04.830Z,97572.00
2022-09-10T02:23:10.929Z,97559.53
2022-09-10T02:27:15.502Z,97564.06
2022-09-10T02:31:19.283Z,97560.97
2022-09-10T02:35:22.483Z,97569.16
2022-09-10T02:39:27.905Z,97564.88
2022-09-10T02:43:31.776Z,97562.38
2022-09-10T02:47:35.544Z,97563.91
2022-09-10T02:51:39.532Z,97556.91
2022-09-10T02:55:46.801Z,97558.75
2022-09-10T02:59:50.264Z,97560.38
2022-09-10T03:03:55.643Z,97551.69
2022-09-10T03:07:59.074Z,97551.09
2022-09-10T03:12:05.200Z,97555.06
2022-09-10T03:16:10.032Z,97555.81
2022-09-10T03:20:14.138Z,97557.75
2022-09-10T03:24:17.767Z,97555.25
2022-09-10T03:28:22.655Z,97555.41
2022-09-10T03:32:25.794Z,97548.63
2022-09-10T03:36:31.832Z,97559.25
2022-09-10T03:40:36.154Z,97560.16
2022-09-10T03:44:41.148Z,97556.47
2022-09-10T03:48:44.755Z,97557.41
2022-09-10T03:52:47.789Z,97559.88
2022-09-10T03:56:51.435Z,97560.81
2022-09-10T04:00:56.299Z,97565.34
2022-09-10T04:05:00.047Z,97560.19
2022-09-10T04:09:03.562Z,97564.38
2022-09-10T04:13:07.243Z,97562.47
2022-09-10T04:17:13.206Z,97569.06
2022-09-10T04:21:16.695Z,97566.19
2022-09-10T04:25:21.346Z,97564.09
2022-09-10T04:29:24.987Z,97564.47
2022-09-10T04:33:29.475Z,97568.06
2022-09-10T04:37:33.197Z,97571.06
2022-09-10T04:41:37.098Z,97570.59
2022-09-10T04:45:41.358Z,97582.84
2022-09-10T04:49:46.652Z,97584.84
2022-09-10T04:53:49.614Z,97585.81
2022-09-10T04:57:53.113Z,97588.44
2022-09-10T05:01:56.629Z,97593.31
2022-09-10T05:06:01.416Z,97593.59
2022-09-10T05:10:04.876Z,97588.63
2022-09-10T05:14:09.380Z,97600.41
2022-09-10T05:18:12.755Z,97598.03
2022-09-10T05:22:18.797Z,97603.75
2022-09-10T05:26:22.202Z,97605.19
2022-09-10T05:30:25.191Z,97600.38
2022-09-10T05:34:28.731Z,97602.63
2022-09-10T05:38:35.227Z,97595.69
2022-09-10T05:42:41.720Z,97612.94
2022-09-10T05:46:45.462Z,97614.66
2022-09-10T05:50:48.456Z,97617.16
2022-09-10T05:54:53.194Z,97612.28
2022-09-10T05:58:56.227Z,97611.28
2022-09-10T06:03:00.067Z,97615.31
2022-09-10T06:07:05.319Z,97618.69
2022-09-10T06:11:12.192Z,97618.47
2022-09-10T06:15:16.518Z,97618.59
2022-09-10T06:19:22.669Z,97623.97
2022-09-10T06:23:26.146Z,97623.69
2022-09-10T06:27:30.598Z,97614.94
2022-09-10T06:31:35.347Z,97615.47
2022-09-10T06:35:38.844Z,97616.00
2022-09-10T06:39:42.519Z,97610.84
2022-09-10T06:43:47.425Z,97608.78
2022-09-10T06:52:13.491Z,97609.97
2022-09-10T06:56:16.988Z,97615.75
2022-09-10T07:00:22.746Z,97617.34
2022-09-10T07:04:25.895Z,97607.53
2022-09-10T07:08:29.310Z,97612.31
2022-09-10T07:12:33.570Z,97615.34
2022-09-10T07:16:42.466Z,97610.22
2022-09-10T07:20:47.024Z,97606.25
2022-09-10T07:24:51.524Z,97608.25
2022-09-10T07:28:55.636Z,97595.63
2022-09-10T07:33:00.689Z,97605.75
2022-09-10T07:37:04.399Z,97604.13
2022-09-10T07:41:10.919Z,97601.84
2022-09-10T07:45:16.975Z,97605.25
2022-09-10T07:49:22.789Z,97603.25
2022-09-10T07:53:26.346Z,97598.72
2022-09-10T07:57:31.940Z,97605.34
2022-09-10T08:01:34.968Z,97610.13
2022-09-10T08:05:40.381Z,97608.72
2022-09-10T08:09:44.248Z,97607.91
2022-09-10T08:13:50.548Z,97611.31
2022-09-10T08:17:54.040Z,97617.16
2022-09-10T08:21:58.384Z,97618.50
2022-09-10T08:26:02.153Z,97616.44
2022-09-10T08:30:06.559Z,97616.66
2022-09-10T08:34:14.335Z,97629.59
2022-09-10T08:38:18.775Z,97631.25
2022-09-10T08:42:27.423Z,97634.34
2022-09-10T08:46:37.810Z,97634.22
2022-09-10T08:50:49.159Z,97632.31
2022-09-10T08:55:01.917Z,97643.44
2022-09-10T08:59:14.497Z,97647.00
2022-09-10T09:03:23.220Z,97651.63
2022-09-10T09:07:31.972Z,97646.19
2022-09-10T09:11:47.709Z,97643.47
2022-09-10T09:16:00.568Z,97645.09
2022-09-10T09:20:15.306Z,97648.72
2022-09-10T09:24:24.802Z,97643.47
2022-09-10T09:28:37.997Z,97637.69
2022-09-10T09:32:45.119Z,97642.69
2022-09-10T09:36:51.579Z,97642.59
2022-09-10T09:40:57.882Z,97634.53
2022-09-10T09:45:09.631Z,97648.66
2022-09-10T09:49:17.201Z,97658.94
2022-09-10T09:53:24.314Z,97666.78
2022-09-10T09:57:28.402Z,97658.50
2022-09-10T10:01:33.893Z,97661.41
2022-09-10T10:05:37.413Z,97659.81
2022-09-10T10:09:45.527Z,97658.75
2022-09-10T10:13:50.940Z,97654.28
2022-09-10T10:17:55.287Z,97648.78
2022-09-10T10:22:00.398Z,97643.47
2022-09-10T10:26:18.931Z,97647.34
2022-09-10T10:30:25.235Z,97637.78
2022-09-10T10:34:48.018Z,97643.72
2022-09-10T10:38:55.566Z,97642.44
2022-09-10T10:43:11.601Z,97635.88
2022-09-10T10:47:44.169Z,97630.00
2022-09-10T10:51:58.373Z,97633.09
2022-09-10T10:56:10.676Z,97632.19
2022-09-10T11:00:16.776Z,97634.00
2022-09-10T11:04:31.225Z,97624.81
2022-09-10T11:08:42.793Z,97621.88
2022-09-10T11:12:52.154Z,97625.38
2022-09-10T11:16:59.824Z,97625.63
2022-09-10T11:21:12.983Z,97620.78
2022-09-10T11:25:24.494Z,97604.03
2022-09-10T11:29:38.665Z,97610.16
2022-09-10T11:33:52.320Z,97599.63
2022-09-10T11:38:05.482Z,97601.19
2022-09-10T11:42:16.511Z,97597.28
2022-09-10T11:46:25.832Z,97596.34
2022-09-10T11:50:35.058Z,97585.78
2022-09-10T11:54:39.093Z,97590.09
2022-09-10T11:58:56.043Z,97576.22
2022-09-10T12:03:17.263Z,97579.03
2022-09-10T12:07:30.783Z,97572.31
2022-09-10T12:11:39.704Z,97573.97
2022-09-10T12:15:53.192Z,97576.88
2022-09-10T12:19:58.558Z,97570.06
2022-09-10T12:24:06.013Z,97560.97
2022-09-10T12:28:49.439Z,97556.84
2022-09-10T12:32:54.691Z,97558.06
2022-09-10T12:37:24.156Z,97551.03
2022-09-10T12:41:59.724Z,97542.09
2022-09-10T12:46:05.854Z,97542.72
2022-09-10T12:50:22.258Z,97531.44
2022-09-10T12:54:51.333Z,97532.09
2022-09-10T12:59:10.469Z,97533.47
2022-09-10T13:03:18.551Z,97547.53
2022-09-10T13:07:25.407Z,97532.84
2022-09-10T13:11:33.569Z,97537.50
2022-09-10T13:15:40.602Z,97539.25
2022-09-10T13:19:53.177Z,97541.78
2022-09-10T13:23:58.411Z,97538.91
2022-09-10T13:28:02.025Z,97540.06
2022-09-10T13:32:14.169Z,97533.59
2022-09-10T13:36:31.027Z,97529.41
2022-09-10T13:40:58.531Z,97521.97
2022-09-10T13:45:23.755Z,97540.06
2022-09-10T13:49:36.671Z,97556.50
2022-09-10T13:53:43.867Z,97528.75
2022-09-10T13:57:51.622Z,97543.66
2022-09-10T14:01:57.236Z,97546.31
2022-09-10T14:10:11.610Z,97548.47
2022-09-10T14:14:20.382Z,97561.72
2022-09-10T14:18:27.727Z,97575.34
2022-09-10T14:22:32.385Z,97595.06
2022-09-10T14:26:36.274Z,97581.78
2022-09-10T14:30:41.096Z,97581.22
2022-09-10T14:34:44.782Z,97579.25
2022-09-10T14:38:58.088Z,97588.13
2022-09-10T14:43:15.890Z,97577.28
2022-09-10T14:47:29.962Z,97582.13
2022-09-10T14:51:33.472Z,97589.31
2022-09-10T14:55:38.310Z,97587.72
2022-09-10T14:59:44.273Z,97591.50
2022-09-10T15:03:48.813Z,97585.63
2022-09-10T15:07:52.377Z,97590.63
2022-09-10T15:11:59.717Z,97585.91
2022-09-10T15:16:03.739Z,97587.97
2022-09-10T15:20:09.895Z,97589.44
2022-09-10T15:24:15.659Z,97580.78
2022-09-10T15:28:19.121Z,97574.03
2022-09-10T15:32:22.608Z,97569.34
2022-09-10T15:36:28.899Z,97570.13
2022-09-10T15:40:32.270Z,97580.69
2022-09-10T15:44:35.965Z,97580.28
2022-09-10T15:48:40.255Z,97570.91
2022-09-10T15:52:45.849Z,97579.16
2022-09-10T15:56:49.318Z,97580.81
2022-09-10T16:00:52.804Z,97567.88
2022-09-10T16:04:56.347Z,97573.16
2022-09-10T16:09:03.832Z,97569.03
2022-09-10T16:13:07.459Z,97566.91
2022-09-10T16:17:10.995Z,97561.53
2022-09-10T16:21:16.045Z,97565.53
2022-09-10T16:25:20.993Z,97561.25
2022-09-10T16:29:24.784Z,97565.22
2022-09-10T16:33:28.323Z,97555.75
2022-09-10T16:37:33.526Z,97560.28
2022-09-10T16:41:38.589Z,97563.44
2022-09-10T16:45:51.800Z,97562.13
2022-09-10T16:49:55.312Z,97555.31
2022-09-10T16:54:02.948Z,97555.22
2022-09-10T16:58:07.826Z,97563.34
2022-09-10T17:02:12.250Z,97557.94
2022-09-10T17:06:18.634Z,97560.59
2022-09-10T17:10:22.140Z,97557.78
2022-09-10T17:14:27.076Z,97563.44
2022-09-10T17:18:29.998Z,97564.09
2022-09-10T17:22:33.800Z,97563.09
2022-09-10T17:26:38.187Z,97568.34
2022-09-10T17:30:43.813Z,97571.19
2022-09-10T17:34:47.596Z,97579.25
2022-09-10T17:38:50.979Z,97571.53
2022-09-10T17:42:55.282Z,97577.59
2022-09-10T17:46:59.741Z,97575.41
2022-09-10T17:51:03.968Z,97574.38
2022-09-10T17:55:08.035Z,97584.28
2022-09-10T17:59:14.363Z,97582.66
2022-09-10T18:03:19.394Z,97582.06
2022-09-10T18:07:22.638Z,97578.59
2022-09-10T18:11:28.784Z,97584.09
2022-09-10T18:15:32.608Z,97584.88
2022-09-10T18:19:36.997Z,97590.97
2022-09-10T18:23:41.992Z,97590.53
2022-09-10T18:27:46.140Z,97595.41
2022-09-10T18:31:54.335Z,97593.19
2022-09-10T18:35:59.143Z,97606.34
2022-09-10T18:40:02.500Z,97602.28
2022-09-10T18:44:08.692Z,97610.38
2022-09-10T18:48:12.614Z,97616.22
2022-09-10T18:52:17.977Z,97616.84
2022-09-10T18:56:24.411Z,97616.47
2022-09-10T19:00:27.627Z,97617.09
2022-09-10T19:04:31.930Z,97614.47
2022-09-10T19:08:38.107Z,97612.03
2022-09-10T19:12:41.741Z,97618.28
2022-09-10T19:16:47.642Z,97609.59
2022-09-10T19:20:51.137Z,97617.69
2022-09-10T19:24:56.438Z,97617.69
2022-09-10T19:29:02.060Z,97615.25
2022-09-10T19:33:05.301Z,97629.19
2022-09-10T19:37:09.090Z,97625.38
2022-09-10T19:41:16.334Z,97630.25
2022-09-10T19:45:20.562Z,97626.59
2022-09-10T19:49:24.149Z,97634.28
2022-09-10T19:53:27.205Z,97630.84
2022-09-10T19:57:32.293Z,97637.13
2022-09-10T20:01:37.387Z,97638.94
2022-09-10T20:05:43.209Z,97637.13
2022-09-10T20:09:47.661Z,97633.47
2022-09-10T20:13:55.940Z,97634.69
2022-09-10T20:17:59.526Z,97628.44
2022-09-10T20:22:03.140Z,97629.03
2022-09-10T20:26:12.245Z,97630.25
2022-09-10T20:30:17.388Z,97629.44
2022-09-10T20:34:22.732Z,97631.88
2022-09-10T20:38:26.395Z,97628.63
2022-09-10T20:42:30.201Z,97633.91
2022-09-10T20:46:35.847Z,97627.00
2022-09-10T20:50:38.978Z,97627.41
2022-09-10T20:54:42.026Z,97625.81
2022-09-10T20:58:46.551Z,97618.91
2022-09-10T21:02:51.448Z,97621.94
2022-09-10T21:06:56.828Z,97614.84
2022-09-10T21:11:05.585Z,97622.53
2022-09-10T21:15:09.847Z,97619.28
2022-09-10T21:19:16.747Z,97618.50
2022-09-10T21:23:20.939Z,97624.75
2022-09-10T21:27:26.138Z,97627.38
2022-09-10T21:31:31.041Z,97624.97
2022-09-10T21:35:35.941Z,97624.97
2022-09-10T21:39:39.343Z,97629.41
2022-09-10T21:43:44.796Z,97627.00
2022-09-10T21:47:48.300Z,97627.81
2022-09-10T21:51:53.623Z,97633.50
2022-09-10T21:55:58.688Z,97623.59
2022-09-10T22:00:02.293Z,97621.34
2022-09-10T22:04:05.861Z,97626.41
2022-09-10T22:08:10.810Z,97619.72
2022-09-10T22:12:13.774Z,97629.88
2022-09-10T22:16:17.665Z,97628.25
2022-09-10T22:20:21.295Z,97627.22
2022-09-10T22:24:26.912Z,97623.66
2022-09-10T22:28:33.131Z,97634.34
2022-09-10T22:32:37.791Z,97633.53
2022-09-10T22:36:46.061Z,97625.00
2022-09-10T22:40:52.171Z,97639.38
2022-09-10T22:44:56.252Z,97641.63
2022-09-10T22:49:00.046Z,97643.00
2022-09-10T22:53:03.090Z,97636.53
2022-09-10T22:57:08.763Z,97645.84
2022-09-10T23:01:14.347Z,97642.00
2022-09-10T23:05:18.246Z,97644.38
2022-09-10T23:09:21.816Z,97649.25
2022-09-10T23:13:26.348Z,97642.75
2022-09-10T23:17:29.925Z,97635.47
2022-09-10T23:21:35.480Z,97631.38
2022-09-10T23:25:39.971Z,97637.25
2022-09-10T23:29:45.910Z,97641.09
2022-09-10T23:33:55.567Z,97643.13
2022-09-10T23:37:59.386Z,97632.16
2022-09-10T23:42:02.806Z,97634.59
2022-09-10T23:46:08.157Z,97635.19
2022-09-10T23:50:11.952Z,97635.13
2022-09-10T23:54:15.433Z,97629.66
2022-09-10T23:58:20.525Z,97625.41
